Ana Sayfa
METAR-TAF:

METAR-TAF

Havaalanları :

İrkutsk, Rusya

Enlem: 52-16N, Boylam: 104-19E, yükseklik: 513 m

Güncel hava durumu gözlemi

Rapor saat 11:30 UTC de 42 dakika önce yapıldı.
Rüzgar güneydan 6 kt
Sıcaklık -12°C
Nem 61%
Basınç 1021 hPa
Görüş mesafesi 10 km veya daha fazla
1500 m altında bulut yok ve kümülonimbus yok

METAR: UIII 231130Z 18003MPS CAVOK M12/M18 Q1021 R12/820550 NOSIG RMK QFE723/0964

Saat: 20:12 (12:12 UTC)

Tahmin

Rapor saat 11:00 UTC de 1 saat ve 12 dakika önce yapıldı.
Ayın 23'si saat 12 UTC'den ayın 24'si saat 12 UTC'ye kadar geçerli Tahmin
Rüzgar güneydoğudan 6 kt
Görüş mesafesi 10 km veya daha fazla
Geçici
ayın 23'si saat 15 UTC'den ayın 24'si saat 02 UTC'ye kadar
Görüş mesafesi: 0500 m
100 ft yükseklikte
Donan sis

TAF: UIII 231100Z 2312/2412 13003MPS 9999 NSC TEMPO 2315/2402 0500 FZFG VV001

4.000'den fazla havaalanı için hava durumu gözlemleri ve tahminleri (METAR ve TAF raporları).

Kullanılabilir istasyonlar harita üzerinde sarı ve kırmızı noktalarla gösterilir.

İstasyonun adını görmek için fareyi noktanın üzerinde gezdirin.

Sonrasında hava gözlem ve tahminlerini görmek için tıklayın.

Haritayı değiştirmek için: yaklaştırmak için siyah artı işaretli yeşil düğmeye ve uzaklaştırmak için de eksi işaretli düğmeye hızla tıklayın; bitişik haritalar için yeşil okları kullanın.


METAR-TAF: